sensor_id;sensor_type;location;lat;lon;timestamp;temperature;humidity
79571;DHT22;69034;49.444;7.758;2023-11-21T00:03:26;12.80;72.10
79571;DHT22;69034;49.444;7.758;2023-11-21T00:07:28;12.80;71.90
79571;DHT22;69034;49.444;7.758;2023-11-21T00:11:29;12.90;71.70
79571;DHT22;69034;49.444;7.758;2023-11-21T00:15:29;12.90;71.60
79571;DHT22;69034;49.444;7.758;2023-11-21T00:19:33;13.00;71.60
79571;DHT22;69034;49.444;7.758;2023-11-21T00:23:35;13.00;71.40
79571;DHT22;69034;49.444;7.758;2023-11-21T00:27:36;13.00;71.40
79571;DHT22;69034;49.444;7.758;2023-11-21T00:31:37;13.00;71.30
79571;DHT22;69034;49.444;7.758;2023-11-21T00:35:39;13.10;71.30
79571;DHT22;69034;49.444;7.758;2023-11-21T00:39:40;13.00;71.30
79571;DHT22;69034;49.444;7.758;2023-11-21T00:43:40;13.10;71.30
79571;DHT22;69034;49.444;7.758;2023-11-21T00:47:41;13.10;71.10
79571;DHT22;69034;49.444;7.758;2023-11-21T00:51:42;13.00;71.20
79571;DHT22;69034;49.444;7.758;2023-11-21T00:55:43;12.80;71.60
79571;DHT22;69034;49.444;7.758;2023-11-21T00:59:44;12.70;71.80
79571;DHT22;69034;49.444;7.758;2023-11-21T01:03:47;12.60;71.90
79571;DHT22;69034;49.444;7.758;2023-11-21T01:07:49;12.50;72.10
79571;DHT22;69034;49.444;7.758;2023-11-21T01:11:49;12.40;72.10
79571;DHT22;69034;49.444;7.758;2023-11-21T01:15:50;12.40;72.20
79571;DHT22;69034;49.444;7.758;2023-11-21T01:19:50;12.40;72.30
79571;DHT22;69034;49.444;7.758;2023-11-21T01:23:51;12.30;72.30
79571;DHT22;69034;49.444;7.758;2023-11-21T01:27:52;12.30;72.40
79571;DHT22;69034;49.444;7.758;2023-11-21T01:31:53;12.30;72.50
79571;DHT22;69034;49.444;7.758;2023-11-21T01:35:55;12.30;72.60
79571;DHT22;69034;49.444;7.758;2023-11-21T01:39:56;12.20;72.60
79571;DHT22;69034;49.444;7.758;2023-11-21T01:43:56;12.20;72.60
79571;DHT22;69034;49.444;7.758;2023-11-21T01:47:57;12.20;72.60
79571;DHT22;69034;49.444;7.758;2023-11-21T01:52:01;12.20;72.70
79571;DHT22;69034;49.444;7.758;2023-11-21T01:56:04;12.20;72.70
79571;DHT22;69034;49.444;7.758;2023-11-21T02:00:08;12.20;72.70
79571;DHT22;69034;49.444;7.758;2023-11-21T02:04:19;12.10;72.70
79571;DHT22;69034;49.444;7.758;2023-11-21T02:08:21;12.10;72.80
79571;DHT22;69034;49.444;7.758;2023-11-21T02:12:22;12.10;72.80
79571;DHT22;69034;49.444;7.758;2023-11-21T02:16:22;12.10;72.80
79571;DHT22;69034;49.444;7.758;2023-11-21T02:20:23;12.10;72.90
79571;DHT22;69034;49.444;7.758;2023-11-21T02:24:25;12.10;72.90
79571;DHT22;69034;49.444;7.758;2023-11-21T02:28:25;12.10;72.90
79571;DHT22;69034;49.444;7.758;2023-11-21T02:32:26;12.10;73.00
79571;DHT22;69034;49.444;7.758;2023-11-21T02:36:27;12.10;73.00
79571;DHT22;69034;49.444;7.758;2023-11-21T02:40:27;12.10;73.00
79571;DHT22;69034;49.444;7.758;2023-11-21T02:44:29;12.10;73.00
79571;DHT22;69034;49.444;7.758;2023-11-21T02:48:30;12.10;73.00
79571;DHT22;69034;49.444;7.758;2023-11-21T02:52:31;12.10;73.00
79571;DHT22;69034;49.444;7.758;2023-11-21T02:56:33;12.00;73.00
79571;DHT22;69034;49.444;7.758;2023-11-21T03:00:34;12.00;73.10
79571;DHT22;69034;49.444;7.758;2023-11-21T03:04:35;12.00;73.00
79571;DHT22;69034;49.444;7.758;2023-11-21T03:08:35;12.00;73.20
79571;DHT22;69034;49.444;7.758;2023-11-21T03:12:36;12.00;73.10
79571;DHT22;69034;49.444;7.758;2023-11-21T03:16:37;12.00;73.20
79571;DHT22;69034;49.444;7.758;2023-11-21T03:20:38;12.00;73.30
79571;DHT22;69034;49.444;7.758;2023-11-21T03:24:39;12.00;73.30
79571;DHT22;69034;49.444;7.758;2023-11-21T03:28:40;12.00;73.40
79571;DHT22;69034;49.444;7.758;2023-11-21T03:32:40;12.00;73.40
79571;DHT22;69034;49.444;7.758;2023-11-21T03:36:41;12.00;73.50
79571;DHT22;69034;49.444;7.758;2023-11-21T03:40:42;12.00;73.50
79571;DHT22;69034;49.444;7.758;2023-11-21T03:44:44;12.00;73.80
79571;DHT22;69034;49.444;7.758;2023-11-21T03:48:44;12.20;73.70
79571;DHT22;69034;49.444;7.758;2023-11-21T03:52:45;12.40;73.30
79571;DHT22;69034;49.444;7.758;2023-11-21T03:56:46;12.50;73.00
79571;DHT22;69034;49.444;7.758;2023-11-21T04:00:47;12.70;72.90
79571;DHT22;69034;49.444;7.758;2023-11-21T04:04:49;12.70;72.70
79571;DHT22;69034;49.444;7.758;2023-11-21T04:08:50;12.80;72.50
79571;DHT22;69034;49.444;7.758;2023-11-21T04:12:50;12.90;72.50
79571;DHT22;69034;49.444;7.758;2023-11-21T04:16:52;12.90;72.40
79571;DHT22;69034;49.444;7.758;2023-11-21T04:20:54;13.00;72.20
79571;DHT22;69034;49.444;7.758;2023-11-21T04:24:54;13.00;72.20
79571;DHT22;69034;49.444;7.758;2023-11-21T04:28:56;13.00;72.20
79571;DHT22;69034;49.444;7.758;2023-11-21T04:32:58;13.00;72.20
79571;DHT22;69034;49.444;7.758;2023-11-21T04:36:58;13.00;72.20
79571;DHT22;69034;49.444;7.758;2023-11-21T04:41:00;13.00;72.10
79571;DHT22;69034;49.444;7.758;2023-11-21T04:45:01;13.00;72.10
79571;DHT22;69034;49.444;7.758;2023-11-21T04:49:03;13.00;72.10
79571;DHT22;69034;49.444;7.758;2023-11-21T04:53:03;12.90;72.30
79571;DHT22;69034;49.444;7.758;2023-11-21T04:57:04;12.70;72.60
79571;DHT22;69034;49.444;7.758;2023-11-21T05:01:06;12.50;72.90
79571;DHT22;69034;49.444;7.758;2023-11-21T05:05:07;12.40;73.10
79571;DHT22;69034;49.444;7.758;2023-11-21T05:09:10;12.40;73.20
79571;DHT22;69034;49.444;7.758;2023-11-21T05:13:12;12.30;73.20
79571;DHT22;69034;49.444;7.758;2023-11-21T05:17:13;12.30;73.40
79571;DHT22;69034;49.444;7.758;2023-11-21T05:21:13;12.20;73.30
79571;DHT22;69034;49.444;7.758;2023-11-21T05:25:16;12.20;73.40
79571;DHT22;69034;49.444;7.758;2023-11-21T05:34:00;12.10;73.50
79571;DHT22;69034;49.444;7.758;2023-11-21T05:38:00;12.10;73.50
79571;DHT22;69034;49.444;7.758;2023-11-21T05:42:03;12.10;73.60
79571;DHT22;69034;49.444;7.758;2023-11-21T05:46:04;12.00;73.60
79571;DHT22;69034;49.444;7.758;2023-11-21T05:50:09;12.00;73.60
79571;DHT22;69034;49.444;7.758;2023-11-21T05:54:12;12.00;73.60
79571;DHT22;69034;49.444;7.758;2023-11-21T05:58:12;12.00;73.70
79571;DHT22;69034;49.444;7.758;2023-11-21T06:02:14;12.00;73.70
79571;DHT22;69034;49.444;7.758;2023-11-21T06:06:14;12.00;73.70
79571;DHT22;69034;49.444;7.758;2023-11-21T06:10:15;12.00;73.80
79571;DHT22;69034;49.444;7.758;2023-11-21T06:14:18;12.00;73.80
79571;DHT22;69034;49.444;7.758;2023-11-21T06:18:18;12.00;73.90
79571;DHT22;69034;49.444;7.758;2023-11-21T06:22:22;12.00;73.90
79571;DHT22;69034;49.444;7.758;2023-11-21T06:26:22;12.00;73.90
79571;DHT22;69034;49.444;7.758;2023-11-21T06:30:24;12.00;74.00
79571;DHT22;69034;49.444;7.758;2023-11-21T06:34:25;11.90;74.00
79571;DHT22;69034;49.444;7.758;2023-11-21T06:38:26;11.90;74.10
79571;DHT22;69034;49.444;7.758;2023-11-21T06:42:30;11.90;74.10
79571;DHT22;69034;49.444;7.758;2023-11-21T06:46:30;11.90;74.20
79571;DHT22;69034;49.444;7.758;2023-11-21T06:50:31;11.90;74.20
79571;DHT22;69034;49.444;7.758;2023-11-21T06:54:32;11.90;74.20
79571;DHT22;69034;49.444;7.758;2023-11-21T06:58:33;11.90;74.30
79571;DHT22;69034;49.444;7.758;2023-11-21T07:02:34;11.90;74.20
79571;DHT22;69034;49.444;7.758;2023-11-21T07:06:35;11.90;74.30
79571;DHT22;69034;49.444;7.758;2023-11-21T07:10:36;11.90;74.30
79571;DHT22;69034;49.444;7.758;2023-11-21T07:14:38;11.90;74.30
79571;DHT22;69034;49.444;7.758;2023-11-21T07:18:41;11.90;74.30
79571;DHT22;69034;49.444;7.758;2023-11-21T07:22:42;11.90;74.40
79571;DHT22;69034;49.444;7.758;2023-11-21T07:26:42;11.90;74.40
79571;DHT22;69034;49.444;7.758;2023-11-21T07:30:44;11.90;74.40
79571;DHT22;69034;49.444;7.758;2023-11-21T07:34:45;12.00;74.30
79571;DHT22;69034;49.444;7.758;2023-11-21T07:38:46;12.00;74.30
79571;DHT22;69034;49.444;7.758;2023-11-21T07:42:47;12.00;74.20
79571;DHT22;69034;49.444;7.758;2023-11-21T07:46:50;12.10;74.10
79571;DHT22;69034;49.444;7.758;2023-11-21T07:50:52;12.20;73.90
79571;DHT22;69034;49.444;7.758;2023-11-21T07:54:52;12.20;73.90
79571;DHT22;69034;49.444;7.758;2023-11-21T07:58:53;12.40;74.10
79571;DHT22;69034;49.444;7.758;2023-11-21T08:02:54;12.60;73.80
79571;DHT22;69034;49.444;7.758;2023-11-21T08:06:55;12.70;73.50
79571;DHT22;69034;49.444;7.758;2023-11-21T08:10:56;12.90;73.20
79571;DHT22;69034;49.444;7.758;2023-11-21T08:14:57;13.00;73.00
79571;DHT22;69034;49.444;7.758;2023-11-21T08:18:57;13.10;72.80
79571;DHT22;69034;49.444;7.758;2023-11-21T08:22:58;13.20;72.70
79571;DHT22;69034;49.444;7.758;2023-11-21T08:26:58;13.30;72.50
79571;DHT22;69034;49.444;7.758;2023-11-21T08:31:01;13.30;72.40
79571;DHT22;69034;49.444;7.758;2023-11-21T08:35:02;13.40;72.10
79571;DHT22;69034;49.444;7.758;2023-11-21T08:39:04;13.60;71.80
79571;DHT22;69034;49.444;7.758;2023-11-21T08:43:05;13.80;71.40
79571;DHT22;69034;49.444;7.758;2023-11-21T08:47:07;13.90;71.20
79571;DHT22;69034;49.444;7.758;2023-11-21T08:51:12;14.00;71.10
79571;DHT22;69034;49.444;7.758;2023-11-21T08:55:14;14.10;71.00
79571;DHT22;69034;49.444;7.758;2023-11-21T08:59:16;14.10;71.00
79571;DHT22;69034;49.444;7.758;2023-11-21T09:03:17;14.10;71.00
79571;DHT22;69034;49.444;7.758;2023-11-21T09:07:18;14.00;71.00
79571;DHT22;69034;49.444;7.758;2023-11-21T09:11:20;14.00;71.10
79571;DHT22;69034;49.444;7.758;2023-11-21T09:15:21;14.10;70.80
79571;DHT22;69034;49.444;7.758;2023-11-21T09:19:22;14.10;70.80
79571;DHT22;69034;49.444;7.758;2023-11-21T09:23:22;14.10;70.70
79571;DHT22;69034;49.444;7.758;2023-11-21T09:27:23;14.20;70.60
79571;DHT22;69034;49.444;7.758;2023-11-21T09:31:26;14.30;70.50
79571;DHT22;69034;49.444;7.758;2023-11-21T09:35:28;14.20;70.60
79571;DHT22;69034;49.444;7.758;2023-11-21T09:39:28;14.20;70.60
79571;DHT22;69034;49.444;7.758;2023-11-21T09:43:32;14.20;70.70
79571;DHT22;69034;49.444;7.758;2023-11-21T09:47:35;14.20;70.70
79571;DHT22;69034;49.444;7.758;2023-11-21T09:51:39;14.20;70.50
79571;DHT22;69034;49.444;7.758;2023-11-21T09:55:50;14.30;70.40
79571;DHT22;69034;49.444;7.758;2023-11-21T09:59:52;14.30;70.50
79571;DHT22;69034;49.444;7.758;2023-11-21T10:04:00;14.20;70.60
79571;DHT22;69034;49.444;7.758;2023-11-21T10:08:01;14.20;70.80
79571;DHT22;69034;49.444;7.758;2023-11-21T10:12:04;14.20;70.60
79571;DHT22;69034;49.444;7.758;2023-11-21T10:16:07;14.20;70.60
79571;DHT22;69034;49.444;7.758;2023-11-21T10:20:12;14.10;70.80
79571;DHT22;69034;49.444;7.758;2023-11-21T10:24:13;14.10;70.80
79571;DHT22;69034;49.444;7.758;2023-11-21T10:28:14;14.10;70.60
79571;DHT22;69034;49.444;7.758;2023-11-21T10:32:15;14.20;70.40
79571;DHT22;69034;49.444;7.758;2023-11-21T10:36:25;14.30;70.00
79571;DHT22;69034;49.444;7.758;2023-11-21T10:40:27;14.40;69.90
79571;DHT22;69034;49.444;7.758;2023-11-21T10:44:29;14.40;69.90
79571;DHT22;69034;49.444;7.758;2023-11-21T10:48:31;14.50;69.80
79571;DHT22;69034;49.444;7.758;2023-11-21T10:52:33;14.60;69.60
79571;DHT22;69034;49.444;7.758;2023-11-21T10:56:36;14.80;69.20
79571;DHT22;69034;49.444;7.758;2023-11-21T11:00:41;15.00;69.00
79571;DHT22;69034;49.444;7.758;2023-11-21T11:04:48;15.20;68.50
79571;DHT22;69034;49.444;7.758;2023-11-21T11:08:49;15.40;68.00
79571;DHT22;69034;49.444;7.758;2023-11-21T11:12:53;15.60;67.70
79571;DHT22;69034;49.444;7.758;2023-11-21T11:16:54;15.70;67.50
79571;DHT22;69034;49.444;7.758;2023-11-21T11:21:25;15.70;67.50
79571;DHT22;69034;49.444;7.758;2023-11-21T11:38:46;15.60;67.50
79571;DHT22;69034;49.444;7.758;2023-11-21T11:43:00;15.70;67.30
79571;DHT22;69034;49.444;7.758;2023-11-21T11:47:02;16.00;66.90
79571;DHT22;69034;49.444;7.758;2023-11-21T11:55:12;16.40;66.10
79571;DHT22;69034;49.444;7.758;2023-11-21T11:59:16;16.50;66.00
79571;DHT22;69034;49.444;7.758;2023-11-21T12:03:16;16.70;65.60
79571;DHT22;69034;49.444;7.758;2023-11-21T12:07:20;16.80;65.50
79571;DHT22;69034;49.444;7.758;2023-11-21T12:11:31;16.90;65.20
79571;DHT22;69034;49.444;7.758;2023-11-21T12:15:32;17.00;64.60
79571;DHT22;69034;49.444;7.758;2023-11-21T12:19:33;17.20;64.10
79571;DHT22;69034;49.444;7.758;2023-11-21T12:23:34;17.40;63.70
79571;DHT22;69034;49.444;7.758;2023-11-21T12:27:36;17.70;63.40
79571;DHT22;69034;49.444;7.758;2023-11-21T12:31:36;17.90;63.10
79571;DHT22;69034;49.444;7.758;2023-11-21T12:35:37;18.20;62.70
79571;DHT22;69034;49.444;7.758;2023-11-21T12:39:38;18.50;62.10
79571;DHT22;69034;49.444;7.758;2023-11-21T12:43:39;18.70;61.50
79571;DHT22;69034;49.444;7.758;2023-11-21T12:47:41;18.80;61.00
79571;DHT22;69034;49.444;7.758;2023-11-21T12:51:44;18.80;60.80
79571;DHT22;69034;49.444;7.758;2023-11-21T12:55:45;18.90;60.50
79571;DHT22;69034;49.444;7.758;2023-11-21T12:59:50;18.90;60.50
79571;DHT22;69034;49.444;7.758;2023-11-21T13:04:00;18.90;60.50
79571;DHT22;69034;49.444;7.758;2023-11-21T13:08:09;18.90;60.50
79571;DHT22;69034;49.444;7.758;2023-11-21T13:12:15;18.90;60.20
79571;DHT22;69034;49.444;7.758;2023-11-21T13:16:19;18.90;60.20
79571;DHT22;69034;49.444;7.758;2023-11-21T13:20:21;18.80;60.30
79571;DHT22;69034;49.444;7.758;2023-11-21T13:24:25;18.80;59.90
79571;DHT22;69034;49.444;7.758;2023-11-21T13:28:34;18.80;59.70
79571;DHT22;69034;49.444;7.758;2023-11-21T13:32:35;18.80;59.80
79571;DHT22;69034;49.444;7.758;2023-11-21T13:36:35;18.70;59.90
79571;DHT22;69034;49.444;7.758;2023-11-21T13:40:48;18.70;59.80
79571;DHT22;69034;49.444;7.758;2023-11-21T13:44:57;18.60;59.90
79571;DHT22;69034;49.444;7.758;2023-11-21T13:49:07;18.40;60.10
79571;DHT22;69034;49.444;7.758;2023-11-21T13:53:12;18.20;60.30
79571;DHT22;69034;49.444;7.758;2023-11-21T13:57:22;18.10;60.70
79571;DHT22;69034;49.444;7.758;2023-11-21T14:01:27;18.00;60.60
79571;DHT22;69034;49.444;7.758;2023-11-21T14:05:30;17.80;60.90
79571;DHT22;69034;49.444;7.758;2023-11-21T14:09:34;17.70;61.20
79571;DHT22;69034;49.444;7.758;2023-11-21T14:13:44;17.50;61.40
79571;DHT22;69034;49.444;7.758;2023-11-21T14:17:47;17.30;61.10
79571;DHT22;69034;49.444;7.758;2023-11-21T14:21:49;17.20;61.20
79571;DHT22;69034;49.444;7.758;2023-11-21T14:25:51;17.10;61.50
79571;DHT22;69034;49.444;7.758;2023-11-21T14:29:54;17.00;61.50
79571;DHT22;69034;49.444;7.758;2023-11-21T14:33:57;16.80;61.80
79571;DHT22;69034;49.444;7.758;2023-11-21T14:38:01;16.60;62.10
79571;DHT22;69034;49.444;7.758;2023-11-21T14:42:06;16.30;62.30
79571;DHT22;69034;49.444;7.758;2023-11-21T14:46:11;16.10;62.60
79571;DHT22;69034;49.444;7.758;2023-11-21T14:50:16;15.80;62.90
79571;DHT22;69034;49.444;7.758;2023-11-21T14:54:39;15.60;63.20
79571;DHT22;69034;49.444;7.758;2023-11-21T14:58:40;15.50;63.40
79571;DHT22;69034;49.444;7.758;2023-11-21T15:02:41;15.30;63.60
79571;DHT22;69034;49.444;7.758;2023-11-21T15:06:50;15.20;63.80
79571;DHT22;69034;49.444;7.758;2023-11-21T15:10:53;15.10;64.10
79571;DHT22;69034;49.444;7.758;2023-11-21T15:14:55;15.00;64.30
79571;DHT22;69034;49.444;7.758;2023-11-21T15:18:57;14.90;64.70
79571;DHT22;69034;49.444;7.758;2023-11-21T15:22:58;14.80;64.90
79571;DHT22;69034;49.444;7.758;2023-11-21T15:26:59;14.70;65.00
79571;DHT22;69034;49.444;7.758;2023-11-21T15:31:00;14.60;65.20
79571;DHT22;69034;49.444;7.758;2023-11-21T15:35:01;14.70;65.70
79571;DHT22;69034;49.444;7.758;2023-11-21T15:39:02;15.00;65.00
79571;DHT22;69034;49.444;7.758;2023-11-21T15:43:02;15.20;64.80
79571;DHT22;69034;49.444;7.758;2023-11-21T15:47:07;15.20;64.90
79571;DHT22;69034;49.444;7.758;2023-11-21T15:51:09;15.10;65.00
79571;DHT22;69034;49.444;7.758;2023-11-21T15:55:12;15.10;65.20
79571;DHT22;69034;49.444;7.758;2023-11-21T15:59:14;15.10;65.30
79571;DHT22;69034;49.444;7.758;2023-11-21T16:03:14;15.10;65.20
79571;DHT22;69034;49.444;7.758;2023-11-21T16:07:17;15.00;65.30
79571;DHT22;69034;49.444;7.758;2023-11-21T16:11:18;15.00;65.50
79571;DHT22;69034;49.444;7.758;2023-11-21T16:15:19;15.00;65.40
79571;DHT22;69034;49.444;7.758;2023-11-21T16:19:20;14.90;65.50
79571;DHT22;69034;49.444;7.758;2023-11-21T16:23:21;14.90;65.50
79571;DHT22;69034;49.444;7.758;2023-11-21T16:27:21;14.80;65.60
79571;DHT22;69034;49.444;7.758;2023-11-21T16:31:22;14.80;65.20
79571;DHT22;69034;49.444;7.758;2023-11-21T16:35:23;14.70;65.40
79571;DHT22;69034;49.444;7.758;2023-11-21T16:39:24;14.60;65.40
79571;DHT22;69034;49.444;7.758;2023-11-21T16:43:25;14.40;65.80
79571;DHT22;69034;49.444;7.758;2023-11-21T16:47:26;14.20;66.20
79571;DHT22;69034;49.444;7.758;2023-11-21T16:51:26;14.10;66.50
79571;DHT22;69034;49.444;7.758;2023-11-21T16:55:27;13.90;66.80
79571;DHT22;69034;49.444;7.758;2023-11-21T16:59:28;13.80;67.00
79571;DHT22;69034;49.444;7.758;2023-11-21T17:03:29;13.80;67.00
79571;DHT22;69034;49.444;7.758;2023-11-21T17:07:31;13.70;67.20
79571;DHT22;69034;49.444;7.758;2023-11-21T17:11:32;13.60;67.30
79571;DHT22;69034;49.444;7.758;2023-11-21T17:15:33;13.60;67.30
79571;DHT22;69034;49.444;7.758;2023-11-21T17:19:36;13.50;67.40
79571;DHT22;69034;49.444;7.758;2023-11-21T17:23:37;13.50;67.60
79571;DHT22;69034;49.444;7.758;2023-11-21T17:27:37;13.40;67.60
79571;DHT22;69034;49.444;7.758;2023-11-21T17:31:38;13.30;67.60
79571;DHT22;69034;49.444;7.758;2023-11-21T17:35:40;13.30;67.70
79571;DHT22;69034;49.444;7.758;2023-11-21T17:39:44;13.20;67.80
79571;DHT22;69034;49.444;7.758;2023-11-21T17:43:45;13.20;67.90
79571;DHT22;69034;49.444;7.758;2023-11-21T17:47:46;13.20;68.10
79571;DHT22;69034;49.444;7.758;2023-11-21T17:51:47;13.20;68.00
79571;DHT22;69034;49.444;7.758;2023-11-21T17:55:48;13.10;68.10
79571;DHT22;69034;49.444;7.758;2023-11-21T17:59:48;13.00;68.20
79571;DHT22;69034;49.444;7.758;2023-11-21T18:03:51;13.00;68.30
79571;DHT22;69034;49.444;7.758;2023-11-21T18:08:13;13.00;68.30
79571;DHT22;69034;49.444;7.758;2023-11-21T18:12:15;12.90;68.30
79571;DHT22;69034;49.444;7.758;2023-11-21T18:16:15;12.90;68.40
79571;DHT22;69034;49.444;7.758;2023-11-21T18:20:16;12.90;68.40
79571;DHT22;69034;49.444;7.758;2023-11-21T18:24:20;12.80;68.50
79571;DHT22;69034;49.444;7.758;2023-11-21T18:28:20;12.80;68.60
79571;DHT22;69034;49.444;7.758;2023-11-21T18:32:21;12.70;68.60
79571;DHT22;69034;49.444;7.758;2023-11-21T18:36:23;12.70;68.80
79571;DHT22;69034;49.444;7.758;2023-11-21T18:40:25;12.70;68.90
79571;DHT22;69034;49.444;7.758;2023-11-21T18:44:26;12.60;69.00
79571;DHT22;69034;49.444;7.758;2023-11-21T18:48:28;12.60;69.20
79571;DHT22;69034;49.444;7.758;2023-11-21T18:52:28;12.60;69.40
79571;DHT22;69034;49.444;7.758;2023-11-21T18:57:00;12.50;69.40
79571;DHT22;69034;49.444;7.758;2023-11-21T19:01:01;12.50;69.60
79571;DHT22;69034;49.444;7.758;2023-11-21T19:05:04;12.50;69.60
79571;DHT22;69034;49.444;7.758;2023-11-21T19:09:05;12.50;69.70
79571;DHT22;69034;49.444;7.758;2023-11-21T19:13:10;12.50;69.90
79571;DHT22;69034;49.444;7.758;2023-11-21T19:17:11;12.50;70.10
79571;DHT22;69034;49.444;7.758;2023-11-21T19:21:15;12.40;70.10
79571;DHT22;69034;49.444;7.758;2023-11-21T19:25:16;12.40;70.20
79571;DHT22;69034;49.444;7.758;2023-11-21T19:29:19;12.40;70.30
79571;DHT22;69034;49.444;7.758;2023-11-21T19:33:19;12.40;70.60
79571;DHT22;69034;49.444;7.758;2023-11-21T19:37:20;12.60;70.50
79571;DHT22;69034;49.444;7.758;2023-11-21T19:41:21;12.80;70.20
79571;DHT22;69034;49.444;7.758;2023-11-21T19:45:22;12.90;70.00
79571;DHT22;69034;49.444;7.758;2023-11-21T19:49:23;13.00;69.70
79571;DHT22;69034;49.444;7.758;2023-11-21T19:53:24;13.10;69.50
79571;DHT22;69034;49.444;7.758;2023-11-21T19:57:24;13.20;69.40
79571;DHT22;69034;49.444;7.758;2023-11-21T20:01:25;13.20;69.30
79571;DHT22;69034;49.444;7.758;2023-11-21T20:05:27;13.30;69.20
79571;DHT22;69034;49.444;7.758;2023-11-21T20:09:29;13.30;69.10
79571;DHT22;69034;49.444;7.758;2023-11-21T20:13:31;13.30;69.10
79571;DHT22;69034;49.444;7.758;2023-11-21T20:17:34;13.30;69.00
79571;DHT22;69034;49.444;7.758;2023-11-21T20:21:36;13.30;69.00
79571;DHT22;69034;49.444;7.758;2023-11-21T20:25:38;13.30;68.90
79571;DHT22;69034;49.444;7.758;2023-11-21T20:29:40;13.30;68.90
79571;DHT22;69034;49.444;7.758;2023-11-21T20:33:42;13.40;68.90
79571;DHT22;69034;49.444;7.758;2023-11-21T20:37:43;13.30;68.80
79571;DHT22;69034;49.444;7.758;2023-11-21T20:41:44;13.20;68.90
79571;DHT22;69034;49.444;7.758;2023-11-21T20:45:45;13.00;69.20
79571;DHT22;69034;49.444;7.758;2023-11-21T20:49:45;12.90;69.50
79571;DHT22;69034;49.444;7.758;2023-11-21T20:53:47;12.80;69.70
79571;DHT22;69034;49.444;7.758;2023-11-21T20:57:49;12.70;69.90
79571;DHT22;69034;49.444;7.758;2023-11-21T21:01:51;12.70;69.90
79571;DHT22;69034;49.444;7.758;2023-11-21T21:05:53;12.60;70.10
79571;DHT22;69034;49.444;7.758;2023-11-21T21:09:54;12.50;70.10
79571;DHT22;69034;49.444;7.758;2023-11-21T21:14:23;12.50;70.30
79571;DHT22;69034;49.444;7.758;2023-11-21T21:18:42;12.50;70.30
79571;DHT22;69034;49.444;7.758;2023-11-21T21:22:43;12.40;70.40
79571;DHT22;69034;49.444;7.758;2023-11-21T21:26:44;12.40;70.40
79571;DHT22;69034;49.444;7.758;2023-11-21T21:30:45;12.40;70.40
79571;DHT22;69034;49.444;7.758;2023-11-21T21:34:52;12.30;70.50
79571;DHT22;69034;49.444;7.758;2023-11-21T21:38:54;12.40;70.70
79571;DHT22;69034;49.444;7.758;2023-11-21T21:42:56;12.50;70.50
79571;DHT22;69034;49.444;7.758;2023-11-21T21:47:03;12.40;70.50
79571;DHT22;69034;49.444;7.758;2023-11-21T21:51:17;12.40;70.70
79571;DHT22;69034;49.444;7.758;2023-11-21T21:55:21;12.30;70.70
79571;DHT22;69034;49.444;7.758;2023-11-21T21:59:22;12.30;70.90
79571;DHT22;69034;49.444;7.758;2023-11-21T22:03:27;12.20;70.90
79571;DHT22;69034;49.444;7.758;2023-11-21T22:07:28;12.10;71.30
79571;DHT22;69034;49.444;7.758;2023-11-21T22:11:34;12.10;71.20
79571;DHT22;69034;49.444;7.758;2023-11-21T22:15:35;12.00;71.10
79571;DHT22;69034;49.444;7.758;2023-11-21T22:19:42;11.90;71.20
79571;DHT22;69034;49.444;7.758;2023-11-21T22:23:44;12.10;71.70
79571;DHT22;69034;49.444;7.758;2023-11-21T22:27:44;12.00;71.40
79571;DHT22;69034;49.444;7.758;2023-11-21T22:31:45;11.80;71.50
79571;DHT22;69034;49.444;7.758;2023-11-21T22:35:48;11.70;71.60
79571;DHT22;69034;49.444;7.758;2023-11-21T22:39:51;11.60;71.70
79571;DHT22;69034;49.444;7.758;2023-11-21T22:43:53;11.50;71.60
79571;DHT22;69034;49.444;7.758;2023-11-21T22:47:54;11.50;71.70
79571;DHT22;69034;49.444;7.758;2023-11-21T22:51:56;11.50;71.30
79571;DHT22;69034;49.444;7.758;2023-11-21T22:55:57;11.40;71.20
79571;DHT22;69034;49.444;7.758;2023-11-21T22:59:59;11.30;71.20
79571;DHT22;69034;49.444;7.758;2023-11-21T23:04:22;11.20;71.10
79571;DHT22;69034;49.444;7.758;2023-11-21T23:08:24;11.10;70.90
79571;DHT22;69034;49.444;7.758;2023-11-21T23:12:26;11.00;70.80
79571;DHT22;69034;49.444;7.758;2023-11-21T23:16:27;11.00;70.90
79571;DHT22;69034;49.444;7.758;2023-11-21T23:20:30;10.90;71.00
79571;DHT22;69034;49.444;7.758;2023-11-21T23:24:32;10.90;70.90
79571;DHT22;69034;49.444;7.758;2023-11-21T23:28:33;10.80;70.80
79571;DHT22;69034;49.444;7.758;2023-11-21T23:32:34;10.70;70.80
79571;DHT22;69034;49.444;7.758;2023-11-21T23:36:36;10.70;70.80
79571;DHT22;69034;49.444;7.758;2023-11-21T23:40:38;10.60;70.90
79571;DHT22;69034;49.444;7.758;2023-11-21T23:44:40;10.60;70.50
79571;DHT22;69034;49.444;7.758;2023-11-21T23:48:47;10.60;70.10
79571;DHT22;69034;49.444;7.758;2023-11-21T23:52:50;10.50;70.10
79571;DHT22;69034;49.444;7.758;2023-11-21T23:56:52;10.40;70.00
